sensor_id;sensor_type;location;lat;lon;timestamp;P1;durP1;ratioP1;P2;durP2;ratioP2
69954;SDS011;57279;55.912;37.490;2022-09-20T00:00:43;4.97;;;0.60;;
69954;SDS011;57279;55.912;37.490;2022-09-20T00:03:10;4.93;;;0.80;;
69954;SDS011;57279;55.912;37.490;2022-09-20T00:05:38;3.58;;;0.70;;
69954;SDS011;57279;55.912;37.490;2022-09-20T00:08:06;6.53;;;0.75;;
69954;SDS011;57279;55.912;37.490;2022-09-20T00:10:35;4.72;;;0.82;;
69954;SDS011;57279;55.912;37.490;2022-09-20T00:13:04;4.22;;;0.70;;
69954;SDS011;57279;55.912;37.490;2022-09-20T00:15:30;4.10;;;0.75;;
69954;SDS011;57279;55.912;37.490;2022-09-20T00:20:22;4.20;;;0.77;;
69954;SDS011;57279;55.912;37.490;2022-09-20T00:22:48;4.00;;;0.80;;
69954;SDS011;57279;55.912;37.490;2022-09-20T00:27:43;8.10;;;1.00;;
69954;SDS011;57279;55.912;37.490;2022-09-20T00:30:10;4.80;;;0.60;;
69954;SDS011;57279;55.912;37.490;2022-09-20T00:32:37;4.60;;;0.80;;
69954;SDS011;57279;55.912;37.490;2022-09-20T00:35:03;3.00;;;0.65;;
69954;SDS011;57279;55.912;37.490;2022-09-20T00:37:39;4.32;;;0.75;;
69954;SDS011;57279;55.912;37.490;2022-09-20T00:40:07;5.60;;;1.00;;
69954;SDS011;57279;55.912;37.490;2022-09-20T00:42:36;4.68;;;0.70;;
69954;SDS011;57279;55.912;37.490;2022-09-20T00:47:41;4.15;;;0.65;;
69954;SDS011;57279;55.912;37.490;2022-09-20T00:53:15;3.83;;;0.73;;
69954;SDS011;57279;55.912;37.490;2022-09-20T00:55:52;4.95;;;0.95;;
69954;SDS011;57279;55.912;37.490;2022-09-20T00:58:25;4.40;;;0.70;;
69954;SDS011;57279;55.912;37.490;2022-09-20T01:00:52;3.90;;;0.82;;
69954;SDS011;57279;55.912;37.490;2022-09-20T01:03:21;4.45;;;0.75;;
69954;SDS011;57279;55.912;37.490;2022-09-20T01:05:49;5.53;;;0.90;;
69954;SDS011;57279;55.912;37.490;2022-09-20T01:08:17;3.90;;;0.60;;
69954;SDS011;57279;55.912;37.490;2022-09-20T01:13:09;4.45;;;0.80;;
69954;SDS011;57279;55.912;37.490;2022-09-20T01:15:35;7.38;;;0.82;;
69954;SDS011;57279;55.912;37.490;2022-09-20T01:18:03;7.38;;;0.90;;
69954;SDS011;57279;55.912;37.490;2022-09-20T01:20:31;5.50;;;0.70;;
69954;SDS011;57279;55.912;37.490;2022-09-20T01:28:28;4.78;;;0.70;;
69954;SDS011;57279;55.912;37.490;2022-09-20T01:39:19;6.78;;;0.80;;
69954;SDS011;57279;55.912;37.490;2022-09-20T01:52:47;5.20;;;0.70;;
69954;SDS011;57279;55.912;37.490;2022-09-20T02:10:04;4.78;;;0.85;;
69954;SDS011;57279;55.912;37.490;2022-09-20T02:12:54;3.72;;;0.73;;
69954;SDS011;57279;55.912;37.490;2022-09-20T02:39:36;4.13;;;0.90;;
69954;SDS011;57279;55.912;37.490;2022-09-20T02:42:23;4.57;;;0.80;;
69954;SDS011;57279;55.912;37.490;2022-09-20T02:45:15;4.05;;;0.70;;
69954;SDS011;57279;55.912;37.490;2022-09-20T02:47:44;5.35;;;0.75;;
69954;SDS011;57279;55.912;37.490;2022-09-20T02:59:15;5.85;;;0.60;;
69954;SDS011;57279;55.912;37.490;2022-09-20T03:18:15;5.60;;;0.88;;
69954;SDS011;57279;55.912;37.490;2022-09-20T03:28:58;3.88;;;0.77;;
69954;SDS011;57279;55.912;37.490;2022-09-20T03:47:35;3.03;;;0.63;;
69954;SDS011;57279;55.912;37.490;2022-09-20T03:50:21;4.50;;;0.85;;
69954;SDS011;57279;55.912;37.490;2022-09-20T04:06:54;5.40;;;1.00;;
69954;SDS011;57279;55.912;37.490;2022-09-20T04:25:56;5.32;;;1.08;;
69954;SDS011;57279;55.912;37.490;2022-09-20T04:34:16;3.90;;;0.88;;
69954;SDS011;57279;55.912;37.490;2022-09-20T04:37:21;6.35;;;1.13;;
69954;SDS011;57279;55.912;37.490;2022-09-20T05:12:38;4.32;;;1.00;;
69954;SDS011;57279;55.912;37.490;2022-09-20T05:16:03;5.65;;;1.02;;
69954;SDS011;57279;55.912;37.490;2022-09-20T05:27:12;5.15;;;1.10;;
69954;SDS011;57279;55.912;37.490;2022-09-20T05:36:16;3.72;;;0.88;;
69954;SDS011;57279;55.912;37.490;2022-09-20T05:39:11;5.10;;;1.00;;
69954;SDS011;57279;55.912;37.490;2022-09-20T05:42:04;5.90;;;0.88;;
69954;SDS011;57279;55.912;37.490;2022-09-20T05:44:56;5.50;;;1.00;;
69954;SDS011;57279;55.912;37.490;2022-09-20T05:48:09;4.72;;;0.90;;
69954;SDS011;57279;55.912;37.490;2022-09-20T05:50:43;5.05;;;1.08;;
69954;SDS011;57279;55.912;37.490;2022-09-20T05:56:33;6.93;;;1.00;;
69954;SDS011;57279;55.912;37.490;2022-09-20T05:59:23;6.63;;;1.05;;
69954;SDS011;57279;55.912;37.490;2022-09-20T06:07:42;5.57;;;1.15;;
69954;SDS011;57279;55.912;37.490;2022-09-20T06:16:02;5.22;;;0.73;;
69954;SDS011;57279;55.912;37.490;2022-09-20T06:26:58;6.20;;;0.95;;
69954;SDS011;57279;55.912;37.490;2022-09-20T06:29:34;4.43;;;1.08;;
69954;SDS011;57279;55.912;37.490;2022-09-20T06:32:03;6.03;;;0.70;;
69954;SDS011;57279;55.912;37.490;2022-09-20T06:34:29;3.67;;;0.70;;
69954;SDS011;57279;55.912;37.490;2022-09-20T06:40:13;4.05;;;0.65;;
69954;SDS011;57279;55.912;37.490;2022-09-20T06:43:14;4.30;;;0.80;;
69954;SDS011;57279;55.912;37.490;2022-09-20T06:45:40;5.50;;;0.90;;
69954;SDS011;57279;55.912;37.490;2022-09-20T06:48:07;4.60;;;0.93;;
69954;SDS011;57279;55.912;37.490;2022-09-20T06:50:37;4.13;;;0.77;;
69954;SDS011;57279;55.912;37.490;2022-09-20T06:53:04;4.18;;;0.70;;
69954;SDS011;57279;55.912;37.490;2022-09-20T06:55:31;4.25;;;0.90;;
69954;SDS011;57279;55.912;37.490;2022-09-20T06:58:03;4.13;;;0.88;;
69954;SDS011;57279;55.912;37.490;2022-09-20T07:00:29;5.03;;;1.08;;
69954;SDS011;57279;55.912;37.490;2022-09-20T07:05:21;4.95;;;1.00;;
69954;SDS011;57279;55.912;37.490;2022-09-20T07:07:47;5.32;;;1.35;;
69954;SDS011;57279;55.912;37.490;2022-09-20T07:10:14;4.30;;;0.90;;
69954;SDS011;57279;55.912;37.490;2022-09-20T07:12:40;6.20;;;1.10;;
69954;SDS011;57279;55.912;37.490;2022-09-20T07:15:06;6.32;;;1.05;;
69954;SDS011;57279;55.912;37.490;2022-09-20T07:17:32;7.15;;;1.10;;
69954;SDS011;57279;55.912;37.490;2022-09-20T07:19:59;4.38;;;0.80;;
69954;SDS011;57279;55.912;37.490;2022-09-20T07:22:25;6.07;;;0.70;;
69954;SDS011;57279;55.912;37.490;2022-09-20T07:24:51;6.53;;;1.75;;
69954;SDS011;57279;55.912;37.490;2022-09-20T07:27:17;5.88;;;0.95;;
69954;SDS011;57279;55.912;37.490;2022-09-20T07:29:43;4.28;;;1.10;;
69954;SDS011;57279;55.912;37.490;2022-09-20T07:32:10;6.05;;;0.82;;
69954;SDS011;57279;55.912;37.490;2022-09-20T07:34:36;5.32;;;0.80;;
69954;SDS011;57279;55.912;37.490;2022-09-20T07:37:01;4.95;;;0.90;;
69954;SDS011;57279;55.912;37.490;2022-09-20T07:39:27;5.30;;;1.20;;
69954;SDS011;57279;55.912;37.490;2022-09-20T07:41:53;7.07;;;1.00;;
69954;SDS011;57279;55.912;37.490;2022-09-20T07:44:18;5.00;;;0.80;;
69954;SDS011;57279;55.912;37.490;2022-09-20T07:46:55;5.22;;;0.80;;
69954;SDS011;57279;55.912;37.490;2022-09-20T07:49:22;5.30;;;0.90;;
69954;SDS011;57279;55.912;37.490;2022-09-20T07:51:49;4.53;;;0.90;;
69954;SDS011;57279;55.912;37.490;2022-09-20T07:54:15;6.30;;;0.73;;
69954;SDS011;57279;55.912;37.490;2022-09-20T07:56:41;4.93;;;0.90;;
69954;SDS011;57279;55.912;37.490;2022-09-20T07:59:07;4.90;;;0.80;;
69954;SDS011;57279;55.912;37.490;2022-09-20T08:01:34;4.80;;;0.90;;
69954;SDS011;57279;55.912;37.490;2022-09-20T08:04:01;4.72;;;0.90;;
69954;SDS011;57279;55.912;37.490;2022-09-20T08:06:28;4.68;;;0.80;;
69954;SDS011;57279;55.912;37.490;2022-09-20T08:08:55;5.60;;;1.23;;
69954;SDS011;57279;55.912;37.490;2022-09-20T08:11:21;6.35;;;0.82;;
69954;SDS011;57279;55.912;37.490;2022-09-20T08:13:50;5.05;;;1.00;;
69954;SDS011;57279;55.912;37.490;2022-09-20T08:16:18;6.25;;;0.93;;
69954;SDS011;57279;55.912;37.490;2022-09-20T08:18:45;5.90;;;0.98;;
69954;SDS011;57279;55.912;37.490;2022-09-20T08:21:11;6.13;;;1.13;;
69954;SDS011;57279;55.912;37.490;2022-09-20T08:23:38;6.70;;;1.10;;
69954;SDS011;57279;55.912;37.490;2022-09-20T08:26:07;4.45;;;0.88;;
69954;SDS011;57279;55.912;37.490;2022-09-20T08:28:39;4.50;;;0.95;;
69954;SDS011;57279;55.912;37.490;2022-09-20T08:31:10;6.93;;;1.48;;
69954;SDS011;57279;55.912;37.490;2022-09-20T08:33:38;4.88;;;1.00;;
69954;SDS011;57279;55.912;37.490;2022-09-20T08:36:05;5.25;;;0.95;;
69954;SDS011;57279;55.912;37.490;2022-09-20T08:38:32;3.80;;;0.70;;
69954;SDS011;57279;55.912;37.490;2022-09-20T08:41:01;7.65;;;1.33;;
69954;SDS011;57279;55.912;37.490;2022-09-20T08:43:34;5.88;;;1.23;;
69954;SDS011;57279;55.912;37.490;2022-09-20T08:46:04;4.22;;;0.90;;
69954;SDS011;57279;55.912;37.490;2022-09-20T08:48:33;4.60;;;0.80;;
69954;SDS011;57279;55.912;37.490;2022-09-20T08:51:02;6.25;;;0.70;;
69954;SDS011;57279;55.912;37.490;2022-09-20T08:53:30;4.03;;;0.60;;
69954;SDS011;57279;55.912;37.490;2022-09-20T08:55:58;5.95;;;1.02;;
69954;SDS011;57279;55.912;37.490;2022-09-20T08:58:24;8.65;;;1.08;;
69954;SDS011;57279;55.912;37.490;2022-09-20T09:00:51;4.85;;;0.80;;
69954;SDS011;57279;55.912;37.490;2022-09-20T09:03:19;6.13;;;0.73;;
69954;SDS011;57279;55.912;37.490;2022-09-20T09:05:46;6.90;;;1.00;;
69954;SDS011;57279;55.912;37.490;2022-09-20T09:08:45;4.35;;;0.68;;
69954;SDS011;57279;55.912;37.490;2022-09-20T09:11:06;6.72;;;1.00;;
69954;SDS011;57279;55.912;37.490;2022-09-20T09:16:16;4.53;;;0.70;;
69954;SDS011;57279;55.912;37.490;2022-09-20T09:18:45;4.80;;;0.95;;
69954;SDS011;57279;55.912;37.490;2022-09-20T09:21:19;3.25;;;0.60;;
69954;SDS011;57279;55.912;37.490;2022-09-20T09:24:06;4.57;;;0.80;;
69954;SDS011;57279;55.912;37.490;2022-09-20T09:26:41;4.78;;;0.88;;
69954;SDS011;57279;55.912;37.490;2022-09-20T09:31:40;4.38;;;0.80;;
69954;SDS011;57279;55.912;37.490;2022-09-20T09:34:29;3.97;;;0.73;;
69954;SDS011;57279;55.912;37.490;2022-09-20T09:37:03;3.53;;;0.73;;
69954;SDS011;57279;55.912;37.490;2022-09-20T09:39:32;5.95;;;0.90;;
69954;SDS011;57279;55.912;37.490;2022-09-20T09:42:18;4.80;;;0.90;;
69954;SDS011;57279;55.912;37.490;2022-09-20T09:44:50;5.45;;;0.88;;
69954;SDS011;57279;55.912;37.490;2022-09-20T09:47:24;5.88;;;1.05;;
69954;SDS011;57279;55.912;37.490;2022-09-20T09:49:55;5.05;;;0.93;;
69954;SDS011;57279;55.912;37.490;2022-09-20T09:52:21;3.97;;;0.90;;
69954;SDS011;57279;55.912;37.490;2022-09-20T09:54:53;4.65;;;0.82;;
69954;SDS011;57279;55.912;37.490;2022-09-20T10:00:20;4.60;;;0.90;;
69954;SDS011;57279;55.912;37.490;2022-09-20T10:05:42;4.95;;;1.10;;
69954;SDS011;57279;55.912;37.490;2022-09-20T10:14:06;6.47;;;1.52;;
69954;SDS011;57279;55.912;37.490;2022-09-20T10:20:06;5.60;;;0.90;;
69954;SDS011;57279;55.912;37.490;2022-09-20T10:22:59;5.55;;;1.02;;
69954;SDS011;57279;55.912;37.490;2022-09-20T10:25:43;4.90;;;1.00;;
69954;SDS011;57279;55.912;37.490;2022-09-20T10:28:18;5.38;;;1.10;;
69954;SDS011;57279;55.912;37.490;2022-09-20T10:31:02;5.78;;;1.33;;
69954;SDS011;57279;55.912;37.490;2022-09-20T10:36:50;4.85;;;1.02;;
69954;SDS011;57279;55.912;37.490;2022-09-20T10:47:55;6.30;;;1.00;;
69954;SDS011;57279;55.912;37.490;2022-09-20T10:56:42;10.48;;;2.22;;
69954;SDS011;57279;55.912;37.490;2022-09-20T11:07:40;6.13;;;1.10;;
69954;SDS011;57279;55.912;37.490;2022-09-20T11:10:13;6.85;;;1.15;;
69954;SDS011;57279;55.912;37.490;2022-09-20T11:12:50;7.65;;;1.75;;
69954;SDS011;57279;55.912;37.490;2022-09-20T11:15:28;4.65;;;0.90;;
69954;SDS011;57279;55.912;37.490;2022-09-20T11:18:15;7.15;;;1.05;;
69954;SDS011;57279;55.912;37.490;2022-09-20T11:21:01;7.50;;;1.23;;
69954;SDS011;57279;55.912;37.490;2022-09-20T11:24:19;12.18;;;1.70;;
69954;SDS011;57279;55.912;37.490;2022-09-20T11:29:21;6.18;;;1.13;;
69954;SDS011;57279;55.912;37.490;2022-09-20T11:32:01;7.40;;;1.33;;
69954;SDS011;57279;55.912;37.490;2022-09-20T11:34:39;6.38;;;1.05;;
69954;SDS011;57279;55.912;37.490;2022-09-20T11:37:20;4.03;;;0.90;;
69954;SDS011;57279;55.912;37.490;2022-09-20T11:39:50;8.07;;;1.42;;
69954;SDS011;57279;55.912;37.490;2022-09-20T11:42:20;6.75;;;1.05;;
69954;SDS011;57279;55.912;37.490;2022-09-20T11:52:40;6.45;;;1.40;;
69954;SDS011;57279;55.912;37.490;2022-09-20T11:55:27;5.13;;;0.90;;
69954;SDS011;57279;55.912;37.490;2022-09-20T11:58:08;5.75;;;0.90;;
69954;SDS011;57279;55.912;37.490;2022-09-20T12:00:38;6.05;;;0.95;;
69954;SDS011;57279;55.912;37.490;2022-09-20T12:03:48;5.88;;;1.00;;
69954;SDS011;57279;55.912;37.490;2022-09-20T12:06:07;7.55;;;1.27;;
69954;SDS011;57279;55.912;37.490;2022-09-20T12:08:47;6.07;;;1.20;;
69954;SDS011;57279;55.912;37.490;2022-09-20T12:11:15;5.82;;;1.10;;
69954;SDS011;57279;55.912;37.490;2022-09-20T12:14:03;6.28;;;1.13;;
69954;SDS011;57279;55.912;37.490;2022-09-20T12:19:09;6.43;;;1.10;;
69954;SDS011;57279;55.912;37.490;2022-09-20T12:25:32;6.85;;;1.27;;
69954;SDS011;57279;55.912;37.490;2022-09-20T12:27:55;6.45;;;1.30;;
69954;SDS011;57279;55.912;37.490;2022-09-20T12:30:21;8.63;;;1.55;;
69954;SDS011;57279;55.912;37.490;2022-09-20T12:32:48;8.27;;;1.40;;
69954;SDS011;57279;55.912;37.490;2022-09-20T12:43:26;7.95;;;1.45;;
69954;SDS011;57279;55.912;37.490;2022-09-20T12:45:54;4.78;;;1.10;;
69954;SDS011;57279;55.912;37.490;2022-09-20T12:48:21;6.45;;;1.30;;
69954;SDS011;57279;55.912;37.490;2022-09-20T12:51:04;8.13;;;1.45;;
69954;SDS011;57279;55.912;37.490;2022-09-20T12:54:02;5.40;;;1.02;;
69954;SDS011;57279;55.912;37.490;2022-09-20T12:56:31;5.95;;;1.25;;
69954;SDS011;57279;55.912;37.490;2022-09-20T12:59:00;7.18;;;1.38;;
69954;SDS011;57279;55.912;37.490;2022-09-20T13:01:31;6.53;;;1.50;;
69954;SDS011;57279;55.912;37.490;2022-09-20T13:10:00;5.20;;;1.20;;
69954;SDS011;57279;55.912;37.490;2022-09-20T13:15:03;6.10;;;1.13;;
69954;SDS011;57279;55.912;37.490;2022-09-20T13:17:39;7.15;;;1.42;;
69954;SDS011;57279;55.912;37.490;2022-09-20T13:20:13;7.70;;;1.52;;
69954;SDS011;57279;55.912;37.490;2022-09-20T13:22:43;6.22;;;1.63;;
69954;SDS011;57279;55.912;37.490;2022-09-20T13:25:12;7.90;;;1.70;;
69954;SDS011;57279;55.912;37.490;2022-09-20T13:27:51;8.57;;;1.95;;
69954;SDS011;57279;55.912;37.490;2022-09-20T13:30:31;6.80;;;1.70;;
69954;SDS011;57279;55.912;37.490;2022-09-20T13:33:42;8.02;;;1.80;;
69954;SDS011;57279;55.912;37.490;2022-09-20T13:35:47;7.30;;;1.70;;
69954;SDS011;57279;55.912;37.490;2022-09-20T13:38:18;7.07;;;1.50;;
69954;SDS011;57279;55.912;37.490;2022-09-20T13:40:46;7.93;;;2.00;;
69954;SDS011;57279;55.912;37.490;2022-09-20T13:43:48;9.35;;;1.90;;
69954;SDS011;57279;55.912;37.490;2022-09-20T13:48:35;7.88;;;1.67;;
69954;SDS011;57279;55.912;37.490;2022-09-20T13:51:01;7.75;;;1.60;;
69954;SDS011;57279;55.912;37.490;2022-09-20T13:53:28;6.05;;;1.50;;
69954;SDS011;57279;55.912;37.490;2022-09-20T13:55:55;7.30;;;1.67;;
69954;SDS011;57279;55.912;37.490;2022-09-20T13:58:28;6.40;;;1.33;;
69954;SDS011;57279;55.912;37.490;2022-09-20T14:00:58;6.80;;;1.70;;
69954;SDS011;57279;55.912;37.490;2022-09-20T14:03:29;7.68;;;2.25;;
69954;SDS011;57279;55.912;37.490;2022-09-20T14:06:00;7.20;;;1.92;;
69954;SDS011;57279;55.912;37.490;2022-09-20T14:08:45;8.95;;;2.03;;
69954;SDS011;57279;55.912;37.490;2022-09-20T14:11:15;5.95;;;1.42;;
69954;SDS011;57279;55.912;37.490;2022-09-20T14:14:05;8.63;;;1.95;;
69954;SDS011;57279;55.912;37.490;2022-09-20T14:16:33;8.05;;;1.70;;
69954;SDS011;57279;55.912;37.490;2022-09-20T14:19:02;9.15;;;2.05;;
69954;SDS011;57279;55.912;37.490;2022-09-20T14:21:31;6.78;;;1.73;;
69954;SDS011;57279;55.912;37.490;2022-09-20T14:26:59;9.93;;;2.15;;
69954;SDS011;57279;55.912;37.490;2022-09-20T14:29:39;7.10;;;1.88;;
69954;SDS011;57279;55.912;37.490;2022-09-20T14:34:41;7.88;;;1.83;;
69954;SDS011;57279;55.912;37.490;2022-09-20T14:37:24;7.68;;;1.98;;
69954;SDS011;57279;55.912;37.490;2022-09-20T14:40:01;6.75;;;1.90;;
69954;SDS011;57279;55.912;37.490;2022-09-20T14:42:35;8.63;;;2.15;;
69954;SDS011;57279;55.912;37.490;2022-09-20T14:45:07;7.53;;;2.20;;
69954;SDS011;57279;55.912;37.490;2022-09-20T14:48:00;10.43;;;3.50;;
69954;SDS011;57279;55.912;37.490;2022-09-20T14:50:35;11.10;;;2.65;;
69954;SDS011;57279;55.912;37.490;2022-09-20T14:55:52;9.30;;;2.00;;
69954;SDS011;57279;55.912;37.490;2022-09-20T14:58:20;6.50;;;2.13;;
69954;SDS011;57279;55.912;37.490;2022-09-20T15:03:26;8.35;;;2.50;;
69954;SDS011;57279;55.912;37.490;2022-09-20T15:05:55;11.77;;;6.65;;
69954;SDS011;57279;55.912;37.490;2022-09-20T15:08:21;9.68;;;4.53;;
69954;SDS011;57279;55.912;37.490;2022-09-20T15:10:47;8.40;;;3.00;;
69954;SDS011;57279;55.912;37.490;2022-09-20T15:13:13;11.80;;;4.30;;
69954;SDS011;57279;55.912;37.490;2022-09-20T15:15:39;8.73;;;2.97;;
69954;SDS011;57279;55.912;37.490;2022-09-20T15:18:13;9.88;;;3.63;;
69954;SDS011;57279;55.912;37.490;2022-09-20T15:20:44;9.98;;;3.22;;
69954;SDS011;57279;55.912;37.490;2022-09-20T15:23:09;15.57;;;4.63;;
69954;SDS011;57279;55.912;37.490;2022-09-20T15:25:35;10.52;;;3.38;;
69954;SDS011;57279;55.912;37.490;2022-09-20T15:28:01;7.80;;;2.70;;
69954;SDS011;57279;55.912;37.490;2022-09-20T15:30:27;9.52;;;3.10;;
69954;SDS011;57279;55.912;37.490;2022-09-20T15:32:53;9.30;;;2.55;;
69954;SDS011;57279;55.912;37.490;2022-09-20T15:35:18;7.82;;;2.45;;
69954;SDS011;57279;55.912;37.490;2022-09-20T15:40:10;9.02;;;2.53;;
69954;SDS011;57279;55.912;37.490;2022-09-20T15:45:05;8.85;;;2.67;;
69954;SDS011;57279;55.912;37.490;2022-09-20T15:47:36;13.68;;;2.42;;
69954;SDS011;57279;55.912;37.490;2022-09-20T15:50:06;8.35;;;2.42;;
69954;SDS011;57279;55.912;37.490;2022-09-20T15:52:36;8.50;;;2.53;;
69954;SDS011;57279;55.912;37.490;2022-09-20T15:55:06;8.85;;;2.45;;
69954;SDS011;57279;55.912;37.490;2022-09-20T15:57:33;10.02;;;2.63;;
69954;SDS011;57279;55.912;37.490;2022-09-20T15:59:59;8.45;;;2.60;;
69954;SDS011;57279;55.912;37.490;2022-09-20T16:02:25;9.75;;;2.55;;
69954;SDS011;57279;55.912;37.490;2022-09-20T16:04:52;11.82;;;3.50;;
69954;SDS011;57279;55.912;37.490;2022-09-20T16:07:22;9.82;;;3.03;;
69954;SDS011;57279;55.912;37.490;2022-09-20T16:09:52;10.07;;;3.95;;
69954;SDS011;57279;55.912;37.490;2022-09-20T16:12:19;12.80;;;4.38;;
69954;SDS011;57279;55.912;37.490;2022-09-20T16:14:45;11.40;;;3.92;;
69954;SDS011;57279;55.912;37.490;2022-09-20T16:17:11;9.68;;;3.42;;
69954;SDS011;57279;55.912;37.490;2022-09-20T16:19:37;12.38;;;4.25;;
69954;SDS011;57279;55.912;37.490;2022-09-20T16:22:05;12.32;;;3.40;;
69954;SDS011;57279;55.912;37.490;2022-09-20T16:24:32;10.55;;;4.30;;
69954;SDS011;57279;55.912;37.490;2022-09-20T16:27:00;8.68;;;3.15;;
69954;SDS011;57279;55.912;37.490;2022-09-20T16:29:27;12.48;;;3.38;;
69954;SDS011;57279;55.912;37.490;2022-09-20T16:31:54;9.70;;;3.42;;
69954;SDS011;57279;55.912;37.490;2022-09-20T16:34:22;8.48;;;3.35;;
69954;SDS011;57279;55.912;37.490;2022-09-20T16:37:05;7.97;;;2.47;;
69954;SDS011;57279;55.912;37.490;2022-09-20T16:39:36;9.57;;;3.10;;
69954;SDS011;57279;55.912;37.490;2022-09-20T16:42:03;8.85;;;3.30;;
69954;SDS011;57279;55.912;37.490;2022-09-20T16:44:34;11.05;;;3.15;;
69954;SDS011;57279;55.912;37.490;2022-09-20T16:47:02;9.32;;;3.67;;
69954;SDS011;57279;55.912;37.490;2022-09-20T16:49:31;10.73;;;3.97;;
69954;SDS011;57279;55.912;37.490;2022-09-20T16:51:59;11.05;;;4.60;;
69954;SDS011;57279;55.912;37.490;2022-09-20T16:54:24;11.60;;;4.97;;
69954;SDS011;57279;55.912;37.490;2022-09-20T16:56:50;12.15;;;5.07;;
69954;SDS011;57279;55.912;37.490;2022-09-20T16:59:17;12.50;;;4.18;;
69954;SDS011;57279;55.912;37.490;2022-09-20T17:01:47;10.95;;;4.07;;
69954;SDS011;57279;55.912;37.490;2022-09-20T17:04:15;12.57;;;4.35;;
69954;SDS011;57279;55.912;37.490;2022-09-20T17:06:42;13.63;;;4.65;;
69954;SDS011;57279;55.912;37.490;2022-09-20T17:09:10;12.18;;;5.65;;
69954;SDS011;57279;55.912;37.490;2022-09-20T17:11:37;13.98;;;5.45;;
69954;SDS011;57279;55.912;37.490;2022-09-20T17:14:05;13.98;;;5.38;;
69954;SDS011;57279;55.912;37.490;2022-09-20T17:16:32;13.15;;;4.93;;
69954;SDS011;57279;55.912;37.490;2022-09-20T17:19:00;12.05;;;4.72;;
69954;SDS011;57279;55.912;37.490;2022-09-20T17:21:38;12.05;;;4.10;;
69954;SDS011;57279;55.912;37.490;2022-09-20T17:24:08;12.75;;;4.15;;
69954;SDS011;57279;55.912;37.490;2022-09-20T17:26:35;11.32;;;4.30;;
69954;SDS011;57279;55.912;37.490;2022-09-20T17:29:03;11.90;;;3.90;;
69954;SDS011;57279;55.912;37.490;2022-09-20T17:31:32;10.00;;;4.03;;
69954;SDS011;57279;55.912;37.490;2022-09-20T17:34:00;12.38;;;4.00;;
69954;SDS011;57279;55.912;37.490;2022-09-20T17:36:27;11.00;;;3.70;;
69954;SDS011;57279;55.912;37.490;2022-09-20T17:38:55;12.77;;;4.13;;
69954;SDS011;57279;55.912;37.490;2022-09-20T17:41:22;10.85;;;3.90;;
69954;SDS011;57279;55.912;37.490;2022-09-20T17:43:53;11.63;;;4.22;;
69954;SDS011;57279;55.912;37.490;2022-09-20T17:46:27;14.52;;;4.25;;
69954;SDS011;57279;55.912;37.490;2022-09-20T17:48:56;12.95;;;4.30;;
69954;SDS011;57279;55.912;37.490;2022-09-20T17:51:26;12.15;;;4.80;;
69954;SDS011;57279;55.912;37.490;2022-09-20T17:53:53;13.27;;;5.00;;
69954;SDS011;57279;55.912;37.490;2022-09-20T17:56:20;11.85;;;4.43;;
69954;SDS011;57279;55.912;37.490;2022-09-20T17:58:59;14.20;;;4.80;;
69954;SDS011;57279;55.912;37.490;2022-09-20T18:01:27;13.45;;;4.65;;
69954;SDS011;57279;55.912;37.490;2022-09-20T18:03:55;15.50;;;4.10;;
69954;SDS011;57279;55.912;37.490;2022-09-20T18:06:23;13.90;;;4.68;;
69954;SDS011;57279;55.912;37.490;2022-09-20T18:08:58;11.10;;;4.25;;
69954;SDS011;57279;55.912;37.490;2022-09-20T18:11:27;12.43;;;4.88;;
69954;SDS011;57279;55.912;37.490;2022-09-20T18:13:56;12.65;;;4.80;;
69954;SDS011;57279;55.912;37.490;2022-09-20T18:16:22;13.95;;;4.80;;
69954;SDS011;57279;55.912;37.490;2022-09-20T18:18:48;11.13;;;4.55;;
69954;SDS011;57279;55.912;37.490;2022-09-20T18:23:41;11.65;;;4.10;;
69954;SDS011;57279;55.912;37.490;2022-09-20T18:26:09;15.73;;;4.60;;
69954;SDS011;57279;55.912;37.490;2022-09-20T18:31:33;12.43;;;4.00;;
69954;SDS011;57279;55.912;37.490;2022-09-20T18:34:21;10.20;;;4.10;;
69954;SDS011;57279;55.912;37.490;2022-09-20T18:36:50;15.43;;;4.43;;
69954;SDS011;57279;55.912;37.490;2022-09-20T18:39:27;14.93;;;5.10;;
69954;SDS011;57279;55.912;37.490;2022-09-20T18:41:55;13.10;;;4.55;;
69954;SDS011;57279;55.912;37.490;2022-09-20T18:44:24;13.45;;;4.50;;
69954;SDS011;57279;55.912;37.490;2022-09-20T18:46:51;13.65;;;4.22;;
69954;SDS011;57279;55.912;37.490;2022-09-20T18:49:19;12.18;;;4.60;;
69954;SDS011;57279;55.912;37.490;2022-09-20T18:51:46;11.70;;;4.60;;
69954;SDS011;57279;55.912;37.490;2022-09-20T18:54:15;14.07;;;4.55;;
69954;SDS011;57279;55.912;37.490;2022-09-20T18:56:42;16.00;;;4.72;;
69954;SDS011;57279;55.912;37.490;2022-09-20T18:59:15;12.10;;;4.93;;
69954;SDS011;57279;55.912;37.490;2022-09-20T19:15:51;21.98;;;7.22;;
69954;SDS011;57279;55.912;37.490;2022-09-20T19:26:38;24.88;;;8.18;;
69954;SDS011;57279;55.912;37.490;2022-09-20T19:29:21;19.02;;;7.93;;
69954;SDS011;57279;55.912;37.490;2022-09-20T19:31:50;25.85;;;8.82;;
69954;SDS011;57279;55.912;37.490;2022-09-20T19:34:20;26.15;;;8.68;;
69954;SDS011;57279;55.912;37.490;2022-09-20T19:36:56;31.63;;;10.63;;
69954;SDS011;57279;55.912;37.490;2022-09-20T19:53:12;48.50;;;14.40;;
69954;SDS011;57279;55.912;37.490;2022-09-20T19:55:40;36.67;;;13.25;;
69954;SDS011;57279;55.912;37.490;2022-09-20T19:58:11;47.78;;;15.98;;
69954;SDS011;57279;55.912;37.490;2022-09-20T20:00:38;35.22;;;11.50;;
69954;SDS011;57279;55.912;37.490;2022-09-20T20:03:04;23.85;;;8.40;;
69954;SDS011;57279;55.912;37.490;2022-09-20T20:05:31;20.63;;;6.53;;
69954;SDS011;57279;55.912;37.490;2022-09-20T20:08:14;45.10;;;14.10;;
69954;SDS011;57279;55.912;37.490;2022-09-20T20:13:42;41.03;;;14.65;;
69954;SDS011;57279;55.912;37.490;2022-09-20T20:16:31;38.17;;;13.43;;
69954;SDS011;57279;55.912;37.490;2022-09-20T20:19:21;34.22;;;11.45;;
69954;SDS011;57279;55.912;37.490;2022-09-20T20:25:02;23.20;;;8.27;;
69954;SDS011;57279;55.912;37.490;2022-09-20T20:27:28;16.25;;;6.22;;
69954;SDS011;57279;55.912;37.490;2022-09-20T20:29:55;18.02;;;6.07;;
69954;SDS011;57279;55.912;37.490;2022-09-20T20:34:47;19.25;;;5.95;;
69954;SDS011;57279;55.912;37.490;2022-09-20T20:39:38;16.20;;;6.95;;
69954;SDS011;57279;55.912;37.490;2022-09-20T20:44:31;17.52;;;6.80;;
69954;SDS011;57279;55.912;37.490;2022-09-20T20:47:00;23.20;;;7.15;;
69954;SDS011;57279;55.912;37.490;2022-09-20T20:49:27;22.83;;;5.90;;
69954;SDS011;57279;55.912;37.490;2022-09-20T20:54:20;21.00;;;5.50;;
69954;SDS011;57279;55.912;37.490;2022-09-20T20:59:11;17.33;;;5.80;;
69954;SDS011;57279;55.912;37.490;2022-09-20T21:01:46;18.08;;;5.05;;
69954;SDS011;57279;55.912;37.490;2022-09-20T21:04:12;17.48;;;5.20;;
69954;SDS011;57279;55.912;37.490;2022-09-20T21:06:39;16.50;;;5.03;;
69954;SDS011;57279;55.912;37.490;2022-09-20T21:11:33;19.50;;;5.35;;
69954;SDS011;57279;55.912;37.490;2022-09-20T21:14:00;25.88;;;6.80;;
69954;SDS011;57279;55.912;37.490;2022-09-20T21:16:30;18.00;;;5.97;;
69954;SDS011;57279;55.912;37.490;2022-09-20T21:18:59;15.98;;;5.50;;
69954;SDS011;57279;55.912;37.490;2022-09-20T21:23:52;20.02;;;7.57;;
69954;SDS011;57279;55.912;37.490;2022-09-20T21:26:20;26.77;;;7.57;;
69954;SDS011;57279;55.912;37.490;2022-09-20T21:28:51;16.90;;;6.40;;
69954;SDS011;57279;55.912;37.490;2022-09-20T21:31:24;20.83;;;5.57;;
69954;SDS011;57279;55.912;37.490;2022-09-20T21:34:00;20.30;;;5.68;;
69954;SDS011;57279;55.912;37.490;2022-09-20T21:36:29;18.10;;;6.40;;
69954;SDS011;57279;55.912;37.490;2022-09-20T21:38:55;23.20;;;7.47;;